Time;durP1;ratioP1;P1;durP2;ratioP2;P2;SDS_P1;SDS_P2;PMS_P1;PMS_P2;Temp;Humidity;BMP_temperature;BMP_pressure;BME280_temperature;BME280_humidity;BME280_pressure;Samples;Min_cycle;Max_cycle;Signal;HPM_P1;HPM_P2
2022/09/20 00:01:12;;;;;;;9.88;4.32;;;;;;;9.17;100.00;99133.47;8382530;28;20037;-80
2022/09/20 00:05:13;;;;;;;7.63;3.50;;;;;;;9.11;100.00;99128.47;8404142;28;20135;-79
2022/09/20 00:09:14;;;;;;;8.57;3.47;;;;;;;9.07;100.00;99127.47;8389130;28;20058;-81
2022/09/20 00:13:15;;;;;;;5.13;3.45;;;;;;;9.02;100.00;99130.25;8402860;28;20047;-80
2022/09/20 00:17:16;;;;;;;9.48;3.00;;;;;;;8.94;100.00;99130.91;8412530;28;20147;-78
2022/09/20 00:21:20;;;;;;;8.88;3.28;;;;;;;8.93;100.00;99142.81;8399589;28;20056;-78
2022/09/20 00:25:21;;;;;;;7.75;3.53;;;;;;;8.90;100.00;99134.22;8402903;28;20041;-79
2022/09/20 00:29:22;;;;;;;7.78;3.20;;;;;;;8.83;100.00;99139.19;8390577;28;20044;-79
2022/09/20 00:35:06;;;;;;;5.80;3.33;;;;;;;8.83;100.00;99139.19;8401332;28;20055;-80
2022/09/20 00:37:45;;;;;;;8.27;3.40;;;;;;;8.81;100.00;99130.63;8411746;28;20037;-80
2022/09/20 00:41:46;;;;;;;7.05;3.70;;;;;;;8.82;100.00;99134.91;8412651;28;20047;-80
2022/09/20 00:45:48;;;;;;;6.00;3.17;;;;;;;8.86;100.00;99138.59;8419753;28;20109;-80
2022/09/20 00:49:50;;;;;;;11.93;3.63;;;;;;;8.86;100.00;99133.22;8400664;28;20053;-81
2022/09/20 00:53:53;;;;;;;10.02;3.85;;;;;;;8.93;100.00;99142.81;8395996;28;20059;-79
2022/09/20 00:57:54;;;;;;;10.38;4.05;;;;;;;8.95;100.00;99151.38;8409089;28;20056;-81
2022/09/20 01:02:04;;;;;;;13.82;5.43;;;;;;;8.96;100.00;99147.59;8398965;28;20492;-81
2022/09/20 01:06:07;;;;;;;11.85;5.05;;;;;;;8.93;100.00;99140.94;8407702;28;20040;-81
2022/09/20 01:10:08;;;;;;;9.30;5.50;;;;;;;8.93;100.00;99134.75;8402377;28;20047;-81
2022/09/20 01:14:12;;;;;;;14.65;5.60;;;;;;;8.97;100.00;99138.44;8415543;28;20123;-79
2022/09/20 01:18:14;;;;;;;11.85;4.90;;;;;;;8.99;100.00;99147.03;8410925;28;20477;-81
2022/09/20 01:22:22;;;;;;;8.23;4.63;;;;;;;9.01;100.00;99139.44;8414586;28;20032;-80
2022/09/20 01:26:35;;;;;;;11.07;5.07;;;;;;;9.03;100.00;99148.03;8352134;28;20047;-80
2022/09/20 01:30:51;;;;;;;7.80;5.00;;;;;;;9.07;100.00;99146.31;8364022;28;20084;-79
2022/09/20 01:34:54;;;;;;;7.68;4.28;;;;;;;9.12;100.00;99151.63;8372725;28;20088;-80
2022/09/20 01:39:06;;;;;;;8.80;4.25;;;;;;;9.05;100.00;99145.81;8357340;28;20056;-81
2022/09/20 01:43:10;;;;;;;9.90;4.40;;;;;;;9.02;100.00;99141.03;8372710;28;20102;-79
2022/09/20 01:47:40;;;;;;;5.80;4.00;;;;;;;9.01;100.00;99139.44;8376567;28;20514;-81
2022/09/20 01:52:10;;;;;;;10.85;4.30;;;;;;;9.01;100.00;99142.91;8367789;28;20056;-79
2022/09/20 01:56:47;;;;;;;10.13;3.88;;;;;;;9.06;100.00;99136.63;8312292;28;20053;-80
2022/09/20 02:01:07;;;;;;;8.18;4.03;;;;;;;9.03;100.00;99142.63;8322548;28;20053;-79
2022/09/20 02:05:25;;;;;;;;;;;;;;;9.07;100.00;99146.31;8330445;28;20128;-80
2022/09/20 02:10:33;;;;;;;6.85;3.78;;;;;;;9.03;100.00;99148.03;8334088;28;19921;-79
2022/09/20 02:14:57;;;;;;;6.88;4.25;;;;;;;9.06;100.00;99147.41;8268052;28;20062;-80
2022/09/20 02:18:58;;;;;;;8.10;3.67;;;;;;;9.08;100.00;99156.00;8267657;28;20062;-80
2022/09/20 02:22:59;;;;;;;11.52;4.47;;;;;;;9.11;100.00;99160.78;8267793;28;20054;-81
2022/09/20 02:27:46;;;;;;;10.00;4.28;;;;;;;9.09;100.00;99163.00;8261282;28;20042;-80
2022/09/20 02:32:10;;;;;;;7.32;4.00;;;;;;;9.07;100.00;99159.78;8179614;29;20079;-80
2022/09/20 02:36:13;;;;;;;5.47;4.03;;;;;;;9.05;100.00;99161.97;8198256;28;20151;-81
2022/09/20 02:40:26;;;;;;;10.15;4.13;;;;;;;9.00;100.00;99172.84;8199457;28;20086;-79
2022/09/20 02:44:33;;;;;;;5.43;4.03;;;;;;;9.02;100.00;99165.28;8229638;28;20078;-79
2022/09/20 02:48:55;;;;;;;10.48;4.32;;;;;;;9.01;100.00;99179.81;8262906;28;20104;-79
2022/09/20 02:53:14;;;;;;;7.72;4.00;;;;;;;9.01;100.00;99182.53;8262932;28;20073;-79
2022/09/20 02:57:35;;;;;;;7.05;4.22;;;;;;;8.97;100.00;99186.91;8262352;28;20449;-80
2022/09/20 03:01:59;;;;;;;5.35;4.40;;;;;;;8.99;100.00;99179.34;8262718;28;20047;-81
2022/09/20 03:06:08;;;;;;;7.85;3.97;;;;;;;8.94;100.00;99182.09;8262018;28;20049;-80
2022/09/20 03:10:20;;;;;;;5.72;3.90;;;;;;;8.97;100.00;99170.75;8407880;28;20498;-79
2022/09/20 03:14:28;;;;;;;9.95;4.10;;;;;;;8.96;100.00;99174.53;8347616;28;20048;-79
2022/09/20 03:18:35;;;;;;;5.68;4.30;;;;;;;8.95;100.00;99172.94;8413127;28;20385;-80
2022/09/20 03:22:39;;;;;;;7.28;4.70;;;;;;;8.93;100.00;99185.91;8408354;28;20044;-79
2022/09/20 03:26:45;;;;;;;8.27;4.72;;;;;;;8.93;100.00;99175.94;8404272;28;20040;-80
2022/09/20 03:31:05;;;;;;;9.07;4.90;;;;;;;8.92;100.00;99185.09;8396646;28;20051;-79
2022/09/20 03:35:25;;;;;;;11.70;4.72;;;;;;;8.92;100.00;99190.50;8393267;28;20059;-80
2022/09/20 03:39:35;;;;;;;8.68;5.53;;;;;;;8.87;100.00;99183.31;8382646;28;20044;-78
2022/09/20 03:43:56;;;;;;;14.38;5.90;;;;;;;8.87;100.00;99177.13;8379605;28;20493;-80
2022/09/20 03:48:03;;;;;;;7.03;5.35;;;;;;;8.92;100.00;99184.31;8259785;28;20174;-81
2022/09/20 03:52:12;;;;;;;17.35;6.30;;;;;;;8.87;100.00;99186.00;8263104;28;20629;-79
2022/09/20 03:56:47;;;;;;;17.98;7.68;;;;;;;8.87;100.00;99188.69;8270576;28;20480;-79
2022/09/20 04:01:04;;;;;;;11.23;6.78;;;;;;;8.91;100.00;99199.66;8261729;28;20050;-78
2022/09/20 04:05:11;;;;;;;14.95;8.05;;;;;;;8.93;100.00;99196.69;8266734;28;20057;-79
2022/09/20 04:09:31;;;;;;;19.48;7.60;;;;;;;8.96;100.00;99196.09;8174007;29;20051;-79
2022/09/20 04:13:43;;;;;;;12.90;7.63;;;;;;;8.96;100.00;99201.47;8168540;29;20062;-80
2022/09/20 04:18:22;;;;;;;15.60;7.03;;;;;;;8.96;100.00;99201.47;8155556;29;20482;-79
2022/09/20 04:22:26;;;;;;;14.65;7.80;;;;;;;8.98;100.00;99201.97;8164745;28;20048;-79
2022/09/20 04:26:29;;;;;;;12.60;7.38;;;;;;;8.96;100.00;99212.25;8220230;28;20050;-79
2022/09/20 04:30:32;;;;;;;13.77;7.38;;;;;;;8.94;100.00;99219.81;8222885;28;20069;-80
2022/09/20 04:39:31;;;;;;;17.45;7.78;;;;;;;8.97;100.00;99224.63;8272031;28;20057;-79
2022/09/20 04:44:03;;;;;;;14.18;8.55;;;;;;;8.94;100.00;99219.81;8306791;28;20533;-79
2022/09/20 04:48:19;;;;;;;19.25;8.32;;;;;;;8.90;100.00;99220.41;8320835;28;20053;-79
2022/09/20 04:52:49;;;;;;;21.25;9.02;;;;;;;8.93;100.00;99223.63;8306494;28;20057;-81
2022/09/20 04:57:16;;;;;;;20.50;8.77;;;;;;;8.92;100.00;99233.59;8300479;28;20455;-80
2022/09/20 05:01:55;;;;;;;14.93;9.02;;;;;;;8.90;100.00;99236.56;8292653;28;20067;-81
2022/09/20 05:06:29;;;;;;;13.95;8.77;;;;;;;8.89;100.00;99243.03;8275776;28;20046;-81
2022/09/20 05:10:47;;;;;;;15.15;9.50;;;;;;;8.89;100.00;99234.97;8193542;29;20441;-80
2022/09/20 05:14:57;;;;;;;18.17;9.50;;;;;;;8.86;100.00;99240.94;8187179;29;20542;-79
2022/09/20 05:19:16;;;;;;;20.80;9.05;;;;;;;8.90;100.00;99247.34;8168609;29;20123;-79
2022/09/20 05:23:50;;;;;;;17.75;10.07;;;;;;;8.92;100.00;99251.63;8195830;29;20067;-79
2022/09/20 05:28:28;;;;;;;16.30;10.05;;;;;;;8.95;100.00;99253.72;8190346;29;20048;-79
2022/09/20 05:32:36;;;;;;;14.82;9.27;;;;;;;8.97;100.00;99262.34;8240896;28;20072;-79
2022/09/20 05:36:55;;;;;;;17.70;10.32;;;;;;;9.00;100.00;99272.50;8220350;28;20505;-79
2022/09/20 05:41:05;;;;;;;;;;;;;;;9.00;100.00;99272.50;8224012;28;20055;-80
2022/09/20 05:45:22;;;;;;;13.95;9.55;;;;;;;8.98;100.00;99274.72;8294001;28;19928;-79
2022/09/20 05:49:45;;;;;;;18.02;9.50;;;;;;;8.97;100.00;99278.50;8355586;28;20048;-83
2022/09/20 05:53:57;;;;;;;15.20;9.65;;;;;;;8.98;100.00;99280.09;8373843;28;20037;-80
2022/09/20 05:58:01;;;;;;;13.98;9.82;;;;;;;9.03;100.00;99278.13;8376206;28;20061;-80
2022/09/20 06:02:17;;;;;;;15.45;9.98;;;;;;;9.09;100.00;99281.53;8390279;28;20049;-79
2022/09/20 06:06:37;;;;;;;18.67;11.15;;;;;;;9.10;100.00;99283.13;8407844;28;20048;-79
2022/09/20 06:10:59;;;;;;;16.20;9.93;;;;;;;9.12;100.00;99275.53;8432492;28;20056;-79
2022/09/20 06:15:11;;;;;;;16.73;10.32;;;;;;;9.09;100.00;99270.75;8418056;28;20093;-79
2022/09/20 06:19:39;;;;;;;16.52;10.38;;;;;;;9.13;100.00;99277.16;8419070;28;20059;-78
2022/09/20 06:23:40;;;;;;;19.92;10.98;;;;;;;9.18;100.00;99285.16;8362316;28;20084;-79
2022/09/20 06:27:50;;;;;;;18.05;11.25;;;;;;;9.14;100.00;99284.16;8361924;28;20089;-79
2022/09/20 06:31:52;;;;;;;20.38;11.90;;;;;;;9.15;100.00;99291.91;8362612;28;20513;-81
2022/09/20 06:45:02;;;;;;;19.90;12.25;;;;;;;9.13;100.00;99293.31;8197294;28;20129;-80
2022/09/20 06:49:07;;;;;;;20.67;11.70;;;;;;;9.16;100.00;99303.50;8252273;28;20050;-80
2022/09/20 06:53:09;;;;;;;19.70;11.50;;;;;;;9.23;100.00;99299.34;8191927;28;20042;-80
2022/09/20 06:57:14;;;;;;;20.77;11.93;;;;;;;9.28;100.00;99311.94;8247434;28;20057;-79
2022/09/20 07:01:15;;;;;;;21.00;11.13;;;;;;;9.37;100.00;99315.53;8312847;28;20144;-80
2022/09/20 07:05:17;;;;;;;21.15;11.15;;;;;;;9.35;100.00;99317.75;8325557;28;20140;-80
2022/09/20 07:09:17;;;;;;;20.10;11.10;;;;;;;9.45;100.00;99322.16;8328100;28;20140;-80
2022/09/20 07:13:19;;;;;;;15.32;9.57;;;;;;;9.45;100.00;99328.34;8328291;28;20454;-81
2022/09/20 07:17:21;;;;;;;15.05;10.02;;;;;;;9.45;100.00;99333.75;8412968;28;20135;-80
2022/09/20 07:21:22;;;;;;;15.57;10.38;;;;;;;9.55;100.00;99338.97;8431330;28;20113;-80
2022/09/20 07:25:22;;;;;;;13.35;8.60;;;;;;;9.59;100.00;99339.97;8429052;28;20135;-80
2022/09/20 07:29:24;;;;;;;15.45;9.07;;;;;;;9.58;100.00;99343.75;8431171;28;20542;-80
2022/09/20 07:33:25;;;;;;;14.98;8.90;;;;;;;9.65;100.00;99349.56;8430298;28;20127;-80
2022/09/20 07:37:26;;;;;;;17.33;8.80;;;;;;;9.64;100.00;99347.97;8416485;28;20048;-83
2022/09/20 07:41:30;;;;;;;20.02;8.40;;;;;;;9.72;100.00;99354.59;8430825;28;20040;-79
2022/09/20 07:45:33;;;;;;;15.23;7.93;;;;;;;9.91;100.00;99346.41;8430586;28;20055;-79
2022/09/20 07:49:34;;;;;;;8.95;7.00;;;;;;;10.14;100.00;99345.44;8430334;28;20456;-79
2022/09/20 07:53:35;;;;;;;11.10;7.15;;;;;;;10.29;100.00;99347.06;8430218;28;20059;-80
2022/09/20 07:57:37;;;;;;;14.15;8.40;;;;;;;10.33;100.00;99343.47;8376006;28;20071;-81
2022/09/20 08:01:50;;;;;;;16.95;8.05;;;;;;;10.44;100.00;99355.66;8415851;28;20044;-80
2022/09/20 08:05:57;;;;;;;9.23;6.55;;;;;;;10.51;100.00;99356.06;8430029;28;20451;-80
2022/09/20 08:09:58;;;;;;;12.43;7.22;;;;;;;10.55;100.00;99356.25;8428676;28;20053;-80
2022/09/20 08:13:59;;;;;;;13.73;7.70;;;;;;;10.61;100.00;99359.63;8429664;28;20052;-80
2022/09/20 08:18:00;;;;;;;11.85;6.93;;;;;;;10.66;100.00;99367.63;8429725;28;20052;-81
2022/09/20 08:22:05;;;;;;;10.60;7.07;;;;;;;10.59;99.47;99368.84;8415281;28;20039;-81
2022/09/20 08:26:08;;;;;;;12.38;7.95;;;;;;;10.61;99.76;99370.44;8429244;28;20055;-80
2022/09/20 08:30:10;;;;;;;16.40;7.15;;;;;;;10.57;99.68;99373.72;8414800;28;20505;-79
2022/09/20 08:34:13;;;;;;;15.27;6.88;;;;;;;10.63;99.51;99374.41;8428914;28;20089;-80
2022/09/20 08:38:18;;;;;;;11.38;6.15;;;;;;;10.57;99.51;99373.72;8429200;28;20055;-80
2022/09/20 08:42:23;;;;;;;12.80;6.90;;;;;;;10.59;99.56;99385.03;8416787;28;20123;-79
2022/09/20 08:46:30;;;;;;;8.80;5.22;;;;;;;10.57;99.60;99387.22;8412460;28;20447;-80
2022/09/20 08:50:33;;;;;;;10.27;4.80;;;;;;;10.61;99.47;99381.25;8429143;28;20169;-78
2022/09/20 08:54:34;;;;;;;8.05;4.55;;;;;;;10.62;99.48;99388.25;8414368;28;20060;-80
2022/09/20 08:58:35;;;;;;;6.43;4.80;;;;;;;10.74;99.14;99385.81;8428644;28;20048;-80
2022/09/20 09:02:36;;;;;;;9.65;4.28;;;;;;;10.93;98.40;99391.91;8428580;28;20481;-79
2022/09/20 09:06:38;;;;;;;7.85;4.20;;;;;;;11.07;97.71;99395.34;8392309;28;20089;-80
2022/09/20 09:10:40;;;;;;;5.93;3.90;;;;;;;11.09;97.37;99395.84;8399934;28;20078;-79
2022/09/20 09:14:47;;;;;;;8.02;3.90;;;;;;;11.11;97.47;99396.34;8419407;28;20040;-79
2022/09/20 09:18:48;;;;;;;10.57;4.07;;;;;;;11.26;97.01;99395.97;8423917;28;20055;-79
2022/09/20 09:23:00;;;;;;;8.43;3.22;;;;;;;11.54;96.19;99393.16;8422306;28;20081;-80
2022/09/20 09:27:13;;;;;;;6.13;4.15;;;;;;;11.46;95.83;99396.63;8420397;28;20040;-83
2022/09/20 09:31:27;;;;;;;8.05;3.47;;;;;;;11.33;95.79;99399.06;8411853;28;20113;-79
2022/09/20 09:35:30;;;;;;;9.05;3.50;;;;;;;11.25;96.41;99407.94;8403401;28;20147;-81
2022/09/20 09:39:34;;;;;;;8.23;2.80;;;;;;;11.14;96.45;99411.97;8429452;28;20044;-80
2022/09/20 09:43:36;;;;;;;9.50;3.92;;;;;;;11.06;97.34;99415.38;8420166;28;20389;-79
2022/09/20 09:47:37;;;;;;;11.25;3.90;;;;;;;10.97;97.53;99414.50;8434042;28;20096;-81
2022/09/20 09:51:41;;;;;;;5.65;4.22;;;;;;;10.76;97.96;99416.03;8434325;28;20548;-81
2022/09/20 09:55:58;;;;;;;10.60;4.70;;;;;;;10.80;98.16;99408.91;8434325;28;20044;-79
2022/09/20 10:00:04;;;;;;;10.55;5.70;;;;;;;11.00;97.50;99416.56;8419857;28;20374;-80
2022/09/20 10:04:21;;;;;;;12.45;4.97;;;;;;;11.35;96.50;99412.28;8420835;28;20075;-79
2022/09/20 10:08:44;;;;;;;10.93;5.55;;;;;;;11.78;95.08;99420.75;8433651;28;20040;-81
2022/09/20 10:13:18;;;;;;;11.70;5.35;;;;;;;12.09;93.55;99416.16;8391222;28;20048;-81
2022/09/20 10:17:30;;;;;;;5.28;4.03;;;;;;;12.19;91.69;99409.66;8433266;28;20056;-80
2022/09/20 10:21:51;;;;;;;6.10;3.60;;;;;;;12.32;90.60;99413.41;8419269;28;20055;-81
2022/09/20 10:25:59;;;;;;;6.82;3.53;;;;;;;12.53;89.96;99430.69;8415010;28;20032;-80
2022/09/20 10:30:02;;;;;;;6.88;3.17;;;;;;;12.51;89.73;99422.06;8417583;28;20052;-79
2022/09/20 10:34:05;;;;;;;5.55;3.20;;;;;;;12.52;88.91;99423.66;8427787;28;20059;-82
2022/09/20 10:38:35;;;;;;;7.68;3.38;;;;;;;12.76;87.89;99418.63;8418457;28;20052;-81
2022/09/20 10:43:14;;;;;;;4.38;2.95;;;;;;;12.97;86.96;99427.78;8431142;28;20546;-79
2022/09/20 10:47:20;;;;;;;6.15;2.90;;;;;;;13.03;86.63;99423.78;8406139;28;20059;-79
2022/09/20 10:51:46;;;;;;;3.63;2.70;;;;;;;12.80;86.85;99441.28;8429841;28;20044;-80
2022/09/20 10:56:02;;;;;;;5.88;3.20;;;;;;;12.59;87.93;99429.41;8419414;28;20048;-83
2022/09/20 11:00:22;;;;;;;4.20;2.85;;;;;;;12.41;89.07;99441.31;8431222;28;20418;-80
2022/09/20 11:04:31;;;;;;;4.88;3.03;;;;;;;12.31;89.01;99444.28;8432125;28;20154;-80
2022/09/20 11:08:39;;;;;;;10.90;4.18;;;;;;;12.19;90.08;99437.53;8429280;28;20048;-78
2022/09/20 11:12:50;;;;;;;6.95;3.90;;;;;;;12.17;91.48;99449.78;8425451;28;20040;-81
2022/09/20 11:17:07;;;;;;;6.40;3.38;;;;;;;12.03;91.78;99444.47;8424268;28;20048;-79
2022/09/20 11:21:38;;;;;;;5.32;3.45;;;;;;;12.08;92.13;99447.03;8430135;28;20051;-79
2022/09/20 11:26:22;;;;;;;6.88;4.50;;;;;;;12.22;92.08;99447.75;8294590;28;20049;-82
2022/09/20 11:30:24;;;;;;;9.48;3.72;;;;;;;12.40;92.27;99440.50;8294642;28;20168;-82
2022/09/20 11:34:31;;;;;;;5.68;3.55;;;;;;;12.90;91.63;99427.44;8294665;28;20054;-78
2022/09/20 11:38:58;;;;;;;5.15;3.35;;;;;;;13.02;91.06;99433.03;8280930;28;20049;-81
2022/09/20 11:43:01;;;;;;;6.47;3.88;;;;;;;12.91;91.22;99431.75;8216037;28;20065;-81
2022/09/20 11:47:22;;;;;;;10.00;4.53;;;;;;;12.76;92.19;99445.72;8284759;28;20064;-80
2022/09/20 11:51:41;;;;;;;5.03;2.85;;;;;;;12.47;92.65;99459.84;8247680;28;20113;-81
2022/09/20 11:56:06;;;;;;;8.80;4.10;;;;;;;12.39;92.79;99462.47;8285731;28;20463;-80
2022/09/20 12:00:09;;;;;;;9.93;4.47;;;;;;;12.45;92.30;99456.63;8284318;28;20051;-82
2022/09/20 12:04:12;;;;;;;9.82;4.80;;;;;;;12.40;92.58;99447.84;8394180;28;20417;-81
2022/09/20 12:08:23;;;;;;;7.70;4.65;;;;;;;12.47;92.86;99448.19;8416825;28;20083;-80
2022/09/20 12:12:40;;;;;;;7.95;4.43;;;;;;;12.40;92.92;99442.41;8414567;28;20040;-81
2022/09/20 12:16:48;;;;;;;7.43;4.57;;;;;;;12.39;92.50;99447.03;8429837;28;20074;-80
2022/09/20 12:20:49;;;;;;;13.93;4.50;;;;;;;12.65;92.50;99450.63;8429743;28;20059;-81
2022/09/20 12:25:29;;;;;;;5.80;3.97;;;;;;;12.72;92.11;99439.34;8429238;28;20134;-81
2022/09/20 12:30:02;;;;;;;6.30;3.55;;;;;;;12.65;91.09;99445.22;8414957;28;20052;-80
2022/09/20 12:34:09;;;;;;;6.97;4.10;;;;;;;12.58;91.60;99454.94;8413859;28;20049;-79
2022/09/20 12:38:19;;;;;;;5.97;3.95;;;;;;;12.51;92.06;99454.56;8429441;28;20051;-81
2022/09/20 12:42:32;;;;;;;5.85;3.83;;;;;;;12.40;91.83;99458.66;8416616;28;20063;-80
2022/09/20 12:46:43;;;;;;;5.90;3.90;;;;;;;12.47;91.59;99464.44;8385740;28;20044;-79
2022/09/20 12:55:28;;;;;;;5.60;4.13;;;;;;;12.79;90.09;99450.53;8391290;28;20150;-80
2022/09/20 12:59:30;;;;;;;7.88;3.78;;;;;;;13.06;88.55;99455.69;8428952;28;20062;-82
2022/09/20 13:03:41;;;;;;;5.90;3.58;;;;;;;13.20;86.81;99452.09;8428252;28;20059;-81
2022/09/20 13:07:46;;;;;;;5.03;3.53;;;;;;;13.54;85.35;99449.38;8419840;28;20153;-81
2022/09/20 13:11:55;;;;;;;9.73;3.97;;;;;;;13.40;85.69;99448.75;8422538;28;20059;-80
2022/09/20 13:15:57;;;;;;;6.28;4.30;;;;;;;13.43;85.78;99453.56;8432983;28;20058;-80
2022/09/20 13:19:58;;;;;;;10.55;4.15;;;;;;;13.72;84.06;99456.41;8434151;28;20036;-80
2022/09/20 13:24:00;;;;;;;7.95;4.50;;;;;;;13.91;84.44;99459.56;8419332;28;20053;-80
2022/09/20 13:28:13;;;;;;;3.40;2.75;;;;;;;13.75;83.81;99458.47;8421512;28;20421;-80
2022/09/20 13:32:24;;;;;;;4.35;3.03;;;;;;;14.09;84.10;99454.09;8433535;28;20522;-80
2022/09/20 13:36:27;;;;;;;7.18;3.10;;;;;;;15.23;81.78;99449.44;8408503;28;20431;-82
2022/09/20 13:40:35;;;;;;;10.23;4.18;;;;;;;15.71;77.83;99448.13;8422580;28;20122;-81
2022/09/20 13:44:37;;;;;;;3.13;1.40;;;;;;;16.13;75.49;99455.09;8417125;28;20048;-81
2022/09/20 13:48:39;;;;;;;6.20;2.13;;;;;;;16.95;71.08;99447.72;8425848;28;20048;-82
2022/09/20 13:52:50;;;;;;;12.65;1.83;;;;;;;17.20;71.17;99449.25;8428919;28;20052;-80
2022/09/20 13:56:51;;;;;;;4.53;1.92;;;;;;;17.43;70.36;99448.75;8393632;28;20155;-83
2022/09/20 14:00:54;;;;;;;7.50;1.58;;;;;;;17.55;69.29;99448.72;8415133;28;20063;-81
2022/09/20 14:05:00;;;;;;;4.78;1.60;;;;;;;17.00;67.79;99444.75;8433714;28;20051;-82
2022/09/20 14:09:04;;;;;;;4.22;1.50;;;;;;;16.54;68.27;99458.81;8413387;28;20047;-80
2022/09/20 14:13:08;;;;;;;7.45;2.00;;;;;;;15.98;70.03;99453.00;8406496;28;20064;-81
2022/09/20 14:17:13;;;;;;;7.82;1.80;;;;;;;16.10;71.25;99450.31;8367833;28;20508;-80
2022/09/20 14:21:23;;;;;;;4.82;2.10;;;;;;;16.69;69.96;99450.00;8421101;28;20404;-81
2022/09/20 14:25:26;;;;;;;4.20;2.05;;;;;;;16.48;68.68;99450.06;8425440;28;20044;-83
2022/09/20 14:29:33;;;;;;;5.53;2.50;;;;;;;15.85;70.08;99456.81;8399654;28;20504;-80
2022/09/20 14:33:39;;;;;;;5.38;2.20;;;;;;;15.51;71.11;99452.44;8423983;28;20093;-81
2022/09/20 14:38:20;;;;;;;5.53;2.42;;;;;;;15.06;72.37;99449.56;8411464;28;20615;-80
2022/09/20 14:42:35;;;;;;;6.40;1.92;;;;;;;14.79;73.62;99448.94;8362097;28;20049;-81
2022/09/20 14:46:37;;;;;;;1.67;1.55;;;;;;;14.67;73.32;99448.81;8359798;28;20060;-79
2022/09/20 14:50:42;;;;;;;4.25;2.13;;;;;;;14.65;73.32;99455.69;8342981;28;20131;-80
2022/09/20 14:54:43;;;;;;;2.70;1.55;;;;;;;14.56;73.20;99461.19;8340209;28;20047;-80
2022/09/20 14:59:05;;;;;;;4.80;1.50;;;;;;;14.58;73.50;99456.22;8356150;28;20040;-79
2022/09/20 15:03:07;;;;;;;5.45;1.52;;;;;;;14.40;72.76;99481.06;8359255;28;20064;-82
2022/09/20 15:07:10;;;;;;;2.45;1.30;;;;;;;14.25;72.37;99464.13;8343235;28;20080;-80
2022/09/20 15:11:17;;;;;;;2.58;1.30;;;;;;;14.28;73.27;99468.09;8365121;28;20045;-80
2022/09/20 15:15:18;;;;;;;6.22;1.50;;;;;;;14.16;73.95;99470.72;8394838;28;20504;-81
2022/09/20 15:19:22;;;;;;;2.15;1.10;;;;;;;13.95;73.87;99476.03;8395370;28;20135;-81
2022/09/20 15:23:23;;;;;;;11.10;1.40;;;;;;;13.66;74.40;99478.59;8396425;28;20466;-81
2022/09/20 15:27:23;;;;;;;2.42;1.50;;;;;;;13.41;73.97;99482.91;8377759;28;20106;-80
2022/09/20 15:31:26;;;;;;;1.30;1.15;;;;;;;13.30;74.58;99476.97;8395513;28;20045;-81
2022/09/20 15:35:27;;;;;;;3.38;1.40;;;;;;;13.27;75.23;99482.25;8396430;28;20047;-80
2022/09/20 15:39:28;;;;;;;4.50;1.50;;;;;;;13.21;75.71;99483.50;8359399;28;20114;-80
2022/09/20 15:43:29;;;;;;;1.75;1.30;;;;;;;13.17;76.24;99482.53;8377488;28;20469;-80
2022/09/20 15:47:31;;;;;;;4.45;1.45;;;;;;;13.03;77.08;99491.56;8393357;28;20040;-79
2022/09/20 15:51:32;;;;;;;3.78;1.50;;;;;;;12.88;77.97;99492.00;8396222;28;20044;-81
2022/09/20 15:55:35;;;;;;;7.45;1.40;;;;;;;12.68;79.30;99487.16;8393293;28;20076;-80
2022/09/20 15:59:36;;;;;;;3.53;1.58;;;;;;;12.47;80.08;99491.53;8395220;28;20052;-81
2022/09/20 16:03:37;;;;;;;6.85;1.52;;;;;;;12.33;80.78;99494.31;8391064;28;20398;-81
2022/09/20 16:07:38;;;;;;;12.25;1.75;;;;;;;12.14;81.86;99494.53;8390226;28;20041;-81
2022/09/20 16:11:39;;;;;;;2.90;1.70;;;;;;;11.97;82.53;99493.63;8389355;28;20478;-81
2022/09/20 16:15:41;;;;;;;5.55;1.95;;;;;;;11.83;83.24;99499.09;8393621;28;20044;-81
2022/09/20 16:19:44;;;;;;;8.20;1.60;;;;;;;11.66;83.87;99498.94;8390685;28;20708;-81
2022/09/20 16:23:48;;;;;;;9.80;1.50;;;;;;;11.51;84.65;99504.69;8394465;28;20505;-81
2022/09/20 16:27:49;;;;;;;2.45;1.45;;;;;;;11.34;85.61;99514.25;8393830;28;20072;-81
2022/09/20 16:31:50;;;;;;;10.65;1.77;;;;;;;11.21;86.02;99519.69;8374270;28;20044;-81
2022/09/20 16:35:51;;;;;;;4.57;1.73;;;;;;;11.07;86.48;99530.50;8393193;28;20038;-81
2022/09/20 16:39:52;;;;;;;2.65;1.40;;;;;;;10.96;86.69;99534.50;8393501;28;20371;-81
2022/09/20 16:43:54;;;;;;;2.38;1.38;;;;;;;10.80;87.14;99531.28;8394192;28;20044;-81
2022/09/20 16:47:56;;;;;;;4.82;1.60;;;;;;;10.69;87.37;99551.50;8393135;28;20041;-81
2022/09/20 16:51:59;;;;;;;5.90;1.63;;;;;;;10.55;87.69;99556.88;8391090;28;20048;-81
2022/09/20 16:56:03;;;;;;;4.70;2.28;;;;;;;10.45;87.80;99562.47;8391497;28;20052;-81
2022/09/20 17:00:06;;;;;;;4.13;2.58;;;;;;;10.37;88.14;99571.22;8392055;28;20068;-82
2022/09/20 17:04:08;;;;;;;7.72;2.63;;;;;;;10.30;88.25;99576.22;8392039;28;20059;-82
2022/09/20 17:08:10;;;;;;;9.13;3.20;;;;;;;10.22;88.33;99590.38;8393881;28;20066;-81
2022/09/20 17:12:12;;;;;;;4.63;3.03;;;;;;;10.15;88.64;99589.94;8390734;28;20517;-81
2022/09/20 17:16:15;;;;;;;8.20;3.40;;;;;;;10.07;88.86;99595.97;8394063;28;20501;-82
2022/09/20 17:20:17;;;;;;;6.82;5.05;;;;;;;10.03;89.08;99597.66;8393644;28;20101;-81
2022/09/20 17:24:20;;;;;;;8.63;4.97;;;;;;;9.99;89.19;99602.06;8392905;28;20137;-81
2022/09/20 17:28:23;;;;;;;9.93;5.03;;;;;;;9.93;89.43;99603.22;8393084;28;20055;-82
2022/09/20 17:32:28;;;;;;;10.90;4.93;;;;;;;9.87;89.64;99615.16;8389452;28;20127;-81
2022/09/20 17:36:32;;;;;;;10.88;4.72;;;;;;;9.83;89.70;99620.34;8393073;28;20052;-81
2022/09/20 17:40:33;;;;;;;11.18;4.10;;;;;;;9.80;89.62;99625.50;8393120;28;20056;-80
2022/09/20 17:44:37;;;;;;;8.60;4.25;;;;;;;9.80;89.75;99630.91;8373113;28;20400;-81
2022/09/20 17:48:47;;;;;;;9.15;4.07;;;;;;;9.72;89.89;99630.47;8370281;28;20139;-81
2022/09/20 17:52:52;;;;;;;8.32;3.38;;;;;;;9.68;89.74;99628.63;8392663;28;20045;-81
2022/09/20 17:56:55;;;;;;;13.98;3.92;;;;;;;9.67;89.79;99633.25;8348426;28;20145;-82
2022/09/20 18:01:09;;;;;;;6.18;3.53;;;;;;;9.68;89.88;99631.31;8395540;28;20036;-80
2022/09/20 18:05:12;;;;;;;15.57;3.33;;;;;;;9.77;89.74;99647.69;8403778;28;20124;-81
2022/09/20 18:09:17;;;;;;;8.77;3.97;;;;;;;9.83;89.87;99646.53;8378712;28;20064;-81
2022/09/20 18:13:23;;;;;;;11.80;3.60;;;;;;;9.89;89.80;99651.53;8379445;28;20063;-80
2022/09/20 18:17:26;;;;;;;8.80;3.17;;;;;;;9.93;89.93;99663.38;8380365;28;20064;-81
2022/09/20 18:21:30;;;;;;;4.70;2.60;;;;;;;9.99;90.04;99658.72;8401287;28;20040;-80
2022/09/20 18:26:20;;;;;;;6.10;3.10;;;;;;;10.02;90.03;99666.22;8362924;28;20098;-80
2022/09/20 18:29:55;;;;;;;10.43;5.63;;;;;;;9.99;90.01;99672.22;8394408;28;20052;-80
2022/09/20 18:34:00;;;;;;;8.65;4.78;;;;;;;9.97;90.46;99672.50;8361908;28;20072;-80
2022/09/20 18:38:03;;;;;;;8.63;3.65;;;;;;;9.91;90.47;99686.34;8374277;28;20037;-81
2022/09/20 18:42:07;;;;;;;9.98;3.20;;;;;;;9.84;91.00;99691.28;8401702;28;20124;-81
2022/09/20 18:46:12;;;;;;;6.00;3.20;;;;;;;9.84;90.92;99683.19;8398872;28;20048;-81
2022/09/20 18:50:13;;;;;;;7.13;3.05;;;;;;;9.81;91.28;99686.47;8399179;28;20037;-82
2022/09/20 18:54:16;;;;;;;6.07;2.72;;;;;;;9.79;91.43;99694.03;8398659;28;20036;-81
2022/09/20 18:58:20;;;;;;;7.30;3.55;;;;;;;9.78;91.21;99687.06;8397245;28;20072;-81
2022/09/20 19:02:56;;;;;;;14.70;5.55;;;;;;;9.69;91.83;99695.78;8403281;28;20048;-81
2022/09/20 19:07:35;;;;;;;8.88;3.45;;;;;;;9.63;91.96;99696.91;8185932;29;20060;-82
2022/09/20 19:11:47;;;;;;;11.82;3.70;;;;;;;9.54;92.19;99698.66;8180359;29;20147;-83
2022/09/20 19:16:19;;;;;;;9.80;2.88;;;;;;;9.45;92.20;99700.38;8138951;29;20056;-80
2022/09/20 19:20:32;;;;;;;10.73;2.83;;;;;;;9.34;92.52;99704.28;8162744;29;20403;-81
2022/09/20 19:24:49;;;;;;;9.45;2.53;;;;;;;9.26;92.83;99712.97;8164838;29;20047;-81
2022/09/20 19:29:01;;;;;;;5.43;2.40;;;;;;;9.19;92.93;99717.91;8163279;29;20115;-81
2022/09/20 19:33:16;;;;;;;8.38;3.60;;;;;;;9.12;93.16;99717.41;8134024;29;20055;-81
2022/09/20 19:37:26;;;;;;;6.18;2.58;;;;;;;9.05;93.27;99716.94;8149940;28;20106;-81
2022/09/20 19:41:51;;;;;;;8.10;2.55;;;;;;;8.99;93.21;99723.50;8196233;28;20068;-81
2022/09/20 19:46:12;;;;;;;6.97;2.92;;;;;;;8.93;93.32;99725.41;8228220;28;20459;-82
2022/09/20 19:50:26;;;;;;;5.30;2.70;;;;;;;8.87;93.26;99732.75;8235261;28;20162;-82